Time;durP1;ratioP1;P1;durP2;ratioP2;P2;SDS_P1;SDS_P2;PMS_P1;PMS_P2;Temp;Humidity;BMP_temperature;BMP_pressure;BME280_temperature;BME280_humidity;BME280_pressure;Samples;Min_cycle;Max_cycle;Signal;HPM_P1;HPM_P2
2022/08/11 00:00:34;;;;;;;;;11.40;11.40;;;;;28.10;29.54;101283.81;2105014;27;47303;-64
2022/08/11 00:01:35;;;;;;;;;11.00;11.00;;;;;28.09;29.68;101286.69;2104547;28;47374;-65
2022/08/11 00:02:42;;;;;;;;;13.40;13.40;;;;;28.07;29.90;101283.19;2104302;28;47531;-64
2022/08/11 00:03:46;;;;;;;;;12.20;12.20;;;;;28.06;29.71;101281.47;2104275;28;47135;-64
2022/08/11 00:04:48;;;;;;;;;12.80;12.80;;;;;28.05;29.95;101280.59;2104937;27;47831;-65
2022/08/11 00:05:53;;;;;;;;;12.00;12.00;;;;;28.04;29.66;101278.00;2105487;27;46849;-64
2022/08/11 00:06:54;;;;;;;;;12.00;12.00;;;;;28.03;29.95;101279.00;2103252;28;47382;-64
2022/08/11 00:07:56;;;;;;;;;12.40;12.40;;;;;28.03;29.83;101281.72;2104970;27;47142;-64
2022/08/11 00:08:58;;;;;;;;;14.80;13.80;;;;;28.02;30.12;101283.59;2104933;27;46736;-64
2022/08/11 00:10:00;;;;;;;;;12.60;11.80;;;;;28.01;30.32;101273.69;2104951;27;47645;-63
2022/08/11 00:11:06;;;;;;;;;13.00;13.00;;;;;28.00;29.58;101279.28;2112163;27;45966;-64
2022/08/11 00:12:15;;;;;;;;;12.60;11.00;;;;;27.99;30.13;101283.00;2112126;27;47647;-64
2022/08/11 00:13:17;;;;;;;;;12.00;12.00;;;;;27.96;29.85;101278.69;2106130;27;45789;-65
2022/08/11 00:14:21;;;;;;;;;13.60;13.60;;;;;27.95;29.64;101281.50;2111124;27;47706;-65
2022/08/11 00:15:23;;;;;;;;;14.40;13.00;;;;;27.95;29.50;101287.88;2112076;27;47636;-65
2022/08/11 00:16:24;;;;;;;;;12.60;11.20;;;;;27.94;30.02;101285.25;2104893;27;47864;-65
2022/08/11 00:17:31;;;;;;;;;11.00;11.00;;;;;27.92;30.26;101285.38;2104832;27;47982;-64
2022/08/11 00:18:52;;;;;;;;;15.60;15.00;;;;;27.91;29.84;101280.06;2105123;27;47516;-64
2022/08/11 00:20:01;;;;;;;;;11.00;9.40;;;;;27.90;29.97;101281.06;2103767;28;47274;-63
2022/08/11 00:21:01;;;;;;;;;12.20;12.20;;;;;27.89;30.64;101282.06;2104932;28;47671;-63
2022/08/11 00:22:04;;;;;;;;;12.75;12.75;;;;;27.88;29.89;101272.13;2105040;27;47339;-65
2022/08/11 00:23:07;;;;;;;;;12.60;12.60;;;;;27.86;30.12;101277.72;2103450;28;47751;-64
2022/08/11 00:24:08;;;;;;;;;14.00;14.00;;;;;27.86;30.22;101277.72;2104667;27;47600;-64
2022/08/11 00:25:20;;;;;;;;;11.60;11.60;;;;;27.85;29.96;101281.47;2111879;27;47510;-64
2022/08/11 00:26:22;;;;;;;;;11.00;11.00;;;;;27.87;30.17;101284.06;2109874;27;47844;-64
2022/08/11 00:27:33;;;;;;;;;12.00;11.00;;;;;27.87;30.18;101274.00;2103445;28;46101;-64
2022/08/11 00:28:35;;;;;;;;;11.40;11.40;;;;;27.87;30.34;101278.59;2103666;28;47996;-63
2022/08/11 00:29:36;;;;;;;;;9.40;9.40;;;;;27.87;29.91;101286.78;2103491;28;48029;-64
2022/08/11 00:30:39;;;;;;;;;11.00;11.00;;;;;27.86;30.29;101280.47;2103571;28;47303;-63
2022/08/11 00:31:54;;;;;;;;;11.00;11.00;;;;;27.84;29.86;101280.59;2103943;28;47476;-63
2022/08/11 00:32:57;;;;;;;;;10.40;10.40;;;;;27.85;30.02;101281.47;2095517;28;47382;-64
2022/08/11 00:34:00;;;;;;;;;11.60;11.60;;;;;27.85;29.93;101284.19;2095597;28;47869;-63
2022/08/11 00:35:02;;;;;;;;;12.40;12.40;;;;;27.85;30.09;101279.59;2103968;28;48181;-65
2022/08/11 00:36:03;;;;;;;;;11.40;11.40;;;;;27.87;30.04;101284.06;2095282;28;47226;-62
2022/08/11 00:37:06;;;;;;;;;10.80;10.80;;;;;27.87;30.02;101284.06;2095410;28;47524;-63
2022/08/11 00:38:07;;;;;;;;;11.60;11.60;;;;;27.86;30.23;101283.19;2104051;28;47523;-65
2022/08/11 00:39:09;;;;;;;;;7.50;7.25;;;;;27.86;29.90;101277.72;2103723;28;47454;-64
2022/08/11 00:40:21;;;;;;;;;11.60;11.60;;;;;27.87;29.98;101287.66;2103494;28;47537;-64
2022/08/11 00:41:38;;;;;;;;;11.60;11.60;;;;;27.87;29.79;101279.47;2103904;28;47785;-64
2022/08/11 00:43:04;;;;;;;;;13.00;11.60;;;;;27.86;29.88;101280.47;2094789;28;47578;-65
2022/08/11 00:44:13;;;;;;;;;10.40;10.40;;;;;27.84;29.72;101277.88;2090173;28;48268;-64
2022/08/11 00:45:26;;;;;;;;;10.20;10.20;;;;;27.84;30.23;101282.47;2093846;28;47679;-64
2022/08/11 00:46:56;;;;;;;;;10.40;10.40;;;;;27.84;29.67;101282.47;2095137;28;47502;-64
2022/08/11 00:48:14;;;;;;;;;10.60;10.60;;;;;27.83;30.13;101280.72;2087120;28;47549;-65
2022/08/11 00:49:50;;;;;;;;;11.40;11.40;;;;;27.83;30.04;101286.19;2088086;28;47743;-65
2022/08/11 00:51:16;;;;;;;;;10.60;10.60;;;;;27.81;29.79;101275.38;2095221;28;47533;-64
2022/08/11 00:52:29;;;;;;;;;14.60;12.60;;;;;27.83;29.91;101286.19;2095530;28;48226;-63
2022/08/11 00:54:01;;;;;;;;;12.20;12.20;;;;;27.83;29.87;101283.47;2095003;28;47790;-64
2022/08/11 00:55:07;;;;;;;;;14.00;12.80;;;;;27.82;30.23;101284.41;2092995;28;47320;-64
2022/08/11 00:56:44;;;;;;;;;12.00;12.00;;;;;27.82;30.12;101284.41;2095065;28;47398;-65
2022/08/11 00:58:16;;;;;;;;;15.20;13.40;;;;;27.80;30.06;101287.28;2095379;28;47560;-65
2022/08/11 00:59:36;;;;;;;;;12.60;12.60;;;;;27.79;30.28;101285.56;2095642;28;47355;-64
2022/08/11 01:01:12;;;;;;;;;14.20;12.20;;;;;27.78;30.19;101289.28;2095200;28;47866;-65
2022/08/11 01:02:37;;;;;;;;;12.00;12.00;;;;;27.77;30.40;101286.69;2086503;28;47340;-64
2022/08/11 01:04:07;;;;;;;;;13.00;12.00;;;;;27.75;30.50;101288.69;2090211;28;47560;-64
2022/08/11 01:05:45;;;;;;;;;14.20;14.20;;;;;27.72;30.08;101287.09;2095157;28;47737;-64
2022/08/11 01:07:04;;;;;;;;;12.40;12.40;;;;;27.72;29.90;101280.78;2095044;28;47146;-64
2022/08/11 01:08:13;;;;;;;;;9.00;9.00;;;;;27.70;30.41;101280.03;2095185;28;47828;-64
2022/08/11 01:09:27;;;;;;;;;12.80;12.00;;;;;27.70;30.37;101285.50;2095477;28;47633;-64
2022/08/11 01:10:43;;;;;;;;;14.00;12.60;;;;;27.69;30.30;101286.47;2095399;28;47665;-63
2022/08/11 01:12:21;;;;;;;;;11.80;11.80;;;;;27.66;30.61;101279.41;2093611;28;47750;-65
2022/08/11 01:13:42;;;;;;;;;12.00;11.80;;;;;27.64;30.40;101277.78;2093649;28;47680;-64
2022/08/11 01:15:19;;;;;;;;;10.80;10.40;;;;;27.63;30.61;101284.22;2095398;28;47586;-64
2022/08/11 01:16:44;;;;;;;;;11.00;11.00;;;;;27.60;30.48;101282.66;2095138;28;46843;-63
2022/08/11 01:18:19;;;;;;;;;12.60;11.60;;;;;27.60;30.58;101282.66;2094928;28;47282;-63
2022/08/11 01:19:55;;;;;;;;;12.00;12.00;;;;;27.61;30.28;101286.22;2095104;28;47686;-64
2022/08/11 01:21:21;;;;;;;;;13.20;13.20;;;;;27.58;30.65;101279.19;2095227;28;47872;-64
2022/08/11 01:22:43;;;;;;;;;10.00;10.00;;;;;27.58;30.00;101281.91;2104209;28;48044;-64
2022/08/11 01:23:56;;;;;;;;;13.20;11.60;;;;;27.56;30.53;101272.97;2104459;28;48106;-64
2022/08/11 01:25:29;;;;;;;;;11.20;11.20;;;;;27.55;30.47;101279.41;2104684;27;47217;-63
2022/08/11 01:26:59;;;;;;;;;11.40;11.40;;;;;27.53;30.92;101274.09;2095817;28;47481;-65
2022/08/11 01:28:41;;;;;;;;;10.80;10.80;;;;;27.51;30.39;101276.09;2103863;28;47486;-63
2022/08/11 01:30:12;;;;;;;;;12.80;11.20;;;;;27.50;30.15;101270.78;2094816;28;47535;-64
2022/08/11 01:31:31;;;;;;;;;12.60;12.60;;;;;27.49;30.75;101271.78;2094322;28;47845;-64
2022/08/11 01:33:02;;;;;;;;;11.00;11.00;;;;;27.47;30.89;101266.44;2095084;28;47460;-64
2022/08/11 01:34:40;;;;;;;;;13.60;13.60;;;;;27.45;31.07;101273.91;2095128;28;47784;-64
2022/08/11 01:36:22;;;;;;;;;13.20;13.00;;;;;27.43;30.79;101264.94;2095171;28;48448;-64
2022/08/11 01:37:57;;;;;;;;;11.80;11.00;;;;;27.40;31.24;101275.25;2061736;28;47746;-64
2022/08/11 01:39:29;;;;;;;;;11.60;11.60;;;;;27.37;31.26;101275.53;2061695;28;47756;-64
2022/08/11 01:40:39;;;;;;;;;11.20;10.40;;;;;27.36;30.99;101276.53;2045908;28;47595;-64
2022/08/11 01:45:35;;;;;;;;;11.00;11.00;;;;;27.31;30.63;101270.56;2046142;28;47804;-62
2022/08/11 01:46:49;;;;;;;;;11.00;11.00;;;;;27.28;30.83;101272.56;2052904;28;47534;-64
2022/08/11 01:48:21;;;;;;;;;13.00;12.00;;;;;27.27;30.76;101267.25;2046225;28;48309;-63
2022/08/11 01:49:30;;;;;;;;;11.40;11.40;;;;;27.25;31.05;101270.09;2037976;28;47360;-63
2022/08/11 01:50:45;;;;;;;;;10.80;10.80;;;;;27.24;30.75;101268.38;2044557;28;48164;-63
2022/08/11 01:52:07;;;;;;;;;10.80;9.60;;;;;27.24;31.38;101273.81;2045761;28;47290;-64
2022/08/11 01:53:29;;;;;;;;;11.20;11.20;;;;;27.24;30.80;101278.41;2046864;28;47795;-63
2022/08/11 01:54:39;;;;;;;;;11.80;11.80;;;;;27.23;31.06;101280.25;2046731;28;48131;-64
2022/08/11 01:56:07;;;;;;;;;12.20;12.20;;;;;27.22;31.31;101273.09;2047241;28;47805;-64
2022/08/11 01:57:53;;;;;;;;;13.00;12.00;;;;;27.22;31.53;101280.41;2052623;28;48150;-64
2022/08/11 01:59:22;;;;;;;;;12.40;12.40;;;;;27.21;30.80;101278.66;2040084;28;47564;-63
2022/08/11 02:00:29;;;;;;;;;11.20;11.20;;;;;27.21;31.49;101284.97;2039533;28;48030;-64
2022/08/11 02:01:35;;;;;;;;;13.20;12.20;;;;;27.21;30.87;101281.38;2038987;28;47442;-64
2022/08/11 02:03:07;;;;;;;;;11.80;11.60;;;;;27.20;30.77;101285.09;2039472;28;47502;-64
2022/08/11 02:04:16;;;;;;;;;14.40;13.80;;;;;27.18;30.90;101279.75;2038876;28;47597;-63
2022/08/11 02:05:22;;;;;;;;;9.20;8.60;;;;;27.18;30.82;101279.75;2039237;28;47541;-64
2022/08/11 02:06:55;;;;;;;;;10.20;9.00;;;;;27.18;31.17;101273.44;2039157;28;47563;-64
2022/08/11 02:08:22;;;;;;;;;11.00;11.00;;;;;27.18;30.86;101270.72;2031045;29;47578;-64
2022/08/11 02:09:45;;;;;;;;;10.80;10.80;;;;;27.17;31.23;101275.31;2034884;28;47387;-63
2022/08/11 02:12:46;;;;;;;;;12.60;12.60;;;;;27.18;31.36;101282.47;2039310;28;47553;-65
2022/08/11 02:13:57;;;;;;;;;12.00;12.00;;;;;27.17;30.91;101275.31;2031540;29;48071;-63
2022/08/11 02:15:48;;;;;;;;;11.80;11.80;;;;;27.17;30.98;101272.56;2060454;28;47620;-63
2022/08/11 02:16:52;;;;;;;;;12.40;12.40;;;;;27.15;31.20;101274.56;2058452;28;47121;-65
2022/08/11 02:18:04;;;;;;;;;12.40;12.40;;;;;27.15;31.03;101269.13;2069087;28;46641;-64
2022/08/11 02:23:59;;;;;;;;;11.00;11.00;;;;;27.12;30.79;101273.97;2063247;28;47746;-64
2022/08/11 02:25:06;;;;;;;;;11.60;11.40;;;;;27.11;30.94;101274.97;2069139;28;47908;-64
2022/08/11 02:26:34;;;;;;;;;11.00;11.00;;;;;27.08;31.32;101269.78;2071157;28;47089;-65
2022/08/11 02:27:45;;;;;;;;;10.60;10.60;;;;;27.07;30.64;101281.66;2071312;28;47995;-64
2022/08/11 02:29:19;;;;;;;;;12.00;12.00;;;;;27.04;31.22;101271.84;2071309;28;47584;-65
2022/08/11 02:30:24;;;;;;;;;5.80;5.80;;;;;27.03;30.75;101275.56;2065641;28;47701;-63
2022/08/11 02:33:21;;;;;;;;;11.00;10.00;;;;;27.01;31.33;101272.13;2070775;28;47547;-65
2022/08/11 02:34:52;;;;;;;;;10.80;9.00;;;;;26.98;31.28;101275.06;2071418;28;47813;-65
2022/08/11 02:36:07;;;;;;;;;11.40;10.40;;;;;26.98;30.94;101275.06;2071501;28;47662;-63
2022/08/11 02:37:15;;;;;;;;;11.00;11.00;;;;;26.98;30.61;101275.06;2087463;28;47505;-63
2022/08/11 02:38:46;;;;;;;;;11.80;11.80;;;;;26.96;31.09;101272.47;2088048;28;47529;-64
2022/08/11 02:40:10;;;;;;;;;11.20;11.20;;;;;26.95;30.66;101270.75;2079541;28;47896;-64
2022/08/11 02:43:09;;;;;;;;;11.40;11.40;;;;;26.93;30.62;101272.72;2087146;28;47587;-64
2022/08/11 02:44:35;;;;;;;;;9.20;9.20;;;;;26.91;31.11;101271.97;2063305;28;48095;-63
2022/08/11 02:45:45;;;;;;;;;9.00;9.00;;;;;26.90;30.65;101272.09;2073251;28;47571;-64
2022/08/11 02:47:04;;;;;;;;;10.20;10.20;;;;;26.88;31.18;101274.06;2079460;28;47761;-64
2022/08/11 02:49:55;;;;;;;;;11.00;11.00;;;;;26.85;31.25;101274.34;2079308;28;47758;-64
2022/08/11 02:51:14;;;;;;;;;10.60;10.00;;;;;26.84;30.75;101276.19;2087490;28;47617;-64
2022/08/11 02:52:24;;;;;;;;;13.20;13.20;;;;;26.82;30.78;101271.88;2087453;28;47579;-64
2022/08/11 02:53:36;;;;;;;;;9.20;9.20;;;;;26.82;31.30;101280.03;2099731;28;48048;-64
2022/08/11 02:55:13;;;;;;;;;10.40;10.40;;;;;26.80;30.65;101277.41;2105297;28;47604;-65
2022/08/11 02:56:26;;;;;;;;;12.40;10.80;;;;;26.79;30.57;101278.41;2079557;28;47732;-63
2022/08/11 02:57:37;;;;;;;;;10.20;10.20;;;;;26.80;31.19;101279.28;2079457;28;48210;-65
2022/08/11 03:00:19;;;;;;;;;12.00;11.00;;;;;26.77;30.82;101266.78;2078652;28;47486;-64
2022/08/11 03:01:38;;;;;;;;;11.00;11.00;;;;;26.76;30.67;101277.78;2071071;28;47626;-64
2022/08/11 03:02:57;;;;;;;;;9.80;9.80;;;;;26.75;31.05;101273.34;2073560;28;47274;-64
2022/08/11 03:04:05;;;;;;;;;11.00;10.60;;;;;26.71;31.02;101272.72;2079189;28;47909;-65
2022/08/11 03:05:19;;;;;;;;;10.20;10.20;;;;;26.69;30.56;101270.13;2079368;28;47556;-64
2022/08/11 03:06:32;;;;;;;;;8.60;8.60;;;;;26.70;31.18;101271.00;2078972;28;47394;-65
2022/08/11 03:07:39;;;;;;;;;5.60;4.60;;;;;26.71;30.66;101271.88;2078993;28;47628;-64
2022/08/11 03:09:08;;;;;;;;;8.80;8.80;;;;;26.71;31.08;101270.00;2079242;28;48004;-64
2022/08/11 03:10:36;;;;;;;;;11.20;11.20;;;;;26.73;30.65;101275.31;2079274;28;47331;-64
2022/08/11 03:18:02;;;;;;;;;12.40;10.80;;;;;26.69;31.19;101274.72;2079061;28;47840;-64
2022/08/11 03:19:20;;;;;;;;;8.00;8.00;;;;;26.67;30.96;101271.22;2070978;28;47876;-63
2022/08/11 03:20:42;;;;;;;;;11.00;11.00;;;;;26.65;30.43;101276.78;2073515;28;47955;-64
2022/08/11 03:22:07;;;;;;;;;12.00;12.00;;;;;26.63;30.65;101269.75;2071172;28;47819;-65
2022/08/11 03:23:24;;;;;;;;;14.20;11.40;;;;;26.62;31.04;101270.75;2078019;28;47506;-64
2022/08/11 03:24:34;;;;;;;;;11.00;11.00;;;;;26.59;31.18;101273.72;2079001;28;47500;-64
2022/08/11 03:25:51;;;;;;;;;13.20;12.20;;;;;26.58;31.65;101272.00;2079131;28;47643;-64
2022/08/11 03:27:06;;;;;;;;;13.40;13.40;;;;;26.57;31.00;101270.25;2079112;28;47692;-64
2022/08/11 03:28:40;;;;;;;;;11.80;11.20;;;;;26.57;31.33;101267.53;2070842;28;47517;-63
2022/08/11 03:30:04;;;;;;;;;12.80;12.80;;;;;26.54;31.31;101265.91;2070646;28;47764;-64
2022/08/11 03:31:45;;;;;;;;;10.80;10.80;;;;;26.52;31.32;101267.88;2073655;28;47044;-64
2022/08/11 03:34:22;;;;;;;;;13.40;11.80;;;;;26.49;31.34;101259.97;2087383;28;48181;-63
2022/08/11 03:35:23;;;;;;;;;14.20;14.00;;;;;26.49;31.35;101264.53;2087815;28;47498;-63
2022/08/11 03:36:26;;;;;;;;;13.00;11.75;;;;;26.49;31.55;101270.00;2087577;28;47426;-64
2022/08/11 03:37:50;;;;;;;;;13.40;13.40;;;;;26.48;31.97;101270.97;2087296;28;48006;-64
2022/08/11 03:39:02;;;;;;;;;13.40;12.40;;;;;26.46;31.50;101268.38;2087270;28;47857;-63
2022/08/11 03:41:48;;;;;;;;;13.60;13.00;;;;;26.46;32.11;101273.84;2087164;28;47835;-63
2022/08/11 03:43:06;;;;;;;;;13.00;12.80;;;;;26.47;31.81;101264.66;2087263;28;48224;-63
2022/08/11 03:44:17;;;;;;;;;12.20;12.20;;;;;26.46;31.84;101265.66;2087049;28;47629;-63
2022/08/11 03:45:45;;;;;;;;;15.00;13.40;;;;;26.46;32.24;101270.25;2087617;28;48375;-64
2022/08/11 03:47:07;;;;;;;;;12.00;12.00;;;;;26.44;32.29;101273.09;2087158;28;47575;-64
2022/08/11 03:48:36;;;;;;;;;12.40;11.80;;;;;26.44;31.73;101267.66;2087246;28;47191;-64
2022/08/11 03:50:06;;;;;;;;;13.00;13.00;;;;;26.43;31.75;101273.22;2087381;28;47981;-64
2022/08/11 03:51:22;;;;;;;;;13.80;13.80;;;;;26.39;31.86;101270.72;2079006;28;46101;-64
2022/08/11 03:52:40;;;;;;;;;12.00;12.00;;;;;26.37;31.96;101271.81;2085467;28;47484;-64
2022/08/11 03:53:48;;;;;;;;;13.20;13.20;;;;;26.36;32.39;101267.38;2087077;28;47953;-64
2022/08/11 03:55:10;;;;;;;;;13.60;13.60;;;;;26.33;31.87;101267.59;2087455;28;47976;-63
2022/08/11 03:56:20;;;;;;;;;12.60;12.60;;;;;26.30;32.51;101271.44;2087401;28;47468;-64
2022/08/11 03:57:38;;;;;;;;;12.60;12.60;;;;;26.29;32.03;101266.94;2087313;28;47585;-64
2022/08/11 03:58:50;;;;;;;;;12.40;11.80;;;;;26.31;31.78;101272.28;2087481;28;47624;-64
2022/08/11 04:00:27;;;;;;;;;12.00;12.00;;;;;26.28;32.36;101269.78;2083124;28;47917;-64
2022/08/11 04:02:04;;;;;;;;;13.00;13.00;;;;;26.26;32.26;101266.34;2084474;28;46146;-65
2022/08/11 04:03:26;;;;;;;;;13.60;13.60;;;;;26.25;32.08;101267.31;2089334;28;45825;-63
2022/08/11 04:04:34;;;;;;;;;13.60;13.60;;;;;26.24;32.59;101261.00;2097972;28;47945;-62
2022/08/11 04:06:08;;;;;;;;;14.40;14.40;;;;;26.24;32.57;101266.47;2105166;27;47345;-63
2022/08/11 04:07:54;;;;;;;;;13.40;13.40;;;;;26.24;31.87;101258.28;2096537;28;47477;-63
2022/08/11 04:09:00;;;;;;;;;11.00;11.00;;;;;26.24;31.85;101263.72;2095909;28;48145;-64
2022/08/11 04:10:38;;;;;;;;;12.40;12.40;;;;;26.22;32.51;101263.00;2104145;28;45933;-64
2022/08/11 04:12:13;;;;;;;;;13.60;13.60;;;;;26.23;32.60;101266.59;2105718;27;47622;-64
2022/08/11 04:13:32;;;;;;;;;12.80;12.80;;;;;26.21;32.22;101265.84;2104036;28;46305;-64
2022/08/11 04:16:43;;;;;;;;;14.40;13.20;;;;;26.15;32.54;101266.31;2093327;28;47420;-64
2022/08/11 04:17:52;;;;;;;;;14.60;14.60;;;;;26.14;32.18;101264.56;2095214;28;47455;-64
2022/08/11 04:18:59;;;;;;;;;13.40;13.40;;;;;26.12;32.38;101264.69;2087012;28;47837;-64
2022/08/11 04:20:12;;;;;;;;;13.40;13.40;;;;;26.12;32.63;101264.69;2087834;28;47247;-64
2022/08/11 04:21:39;;;;;;;;;13.20;12.80;;;;;26.13;32.55;101271.00;2095507;28;47734;-64
2022/08/11 04:23:18;;;;;;;;;13.60;13.60;;;;;26.11;32.00;101262.97;2095280;28;47497;-64
2022/08/11 04:24:21;;;;;;;;;14.00;13.80;;;;;26.11;32.46;101280.16;2095469;28;47613;-64
2022/08/11 04:25:49;;;;;;;;;14.00;14.00;;;;;26.09;32.05;101267.66;2094921;28;47651;-64
2022/08/11 04:27:16;;;;;;;;;14.20;14.20;;;;;26.08;31.87;101272.25;2095216;28;47882;-63
2022/08/11 04:28:28;;;;;;;;;12.00;12.00;;;;;26.07;32.44;101265.06;2087175;28;47619;-64
2022/08/11 04:29:46;;;;;;;;;12.00;12.00;;;;;26.06;32.21;101271.50;2093971;28;47605;-64
2022/08/11 04:31:15;;;;;;;;;12.00;11.00;;;;;26.04;32.01;101267.13;2095288;28;47685;-64
2022/08/11 04:32:39;;;;;;;;;16.00;14.20;;;;;26.07;32.40;101269.63;2095056;28;47469;-64
2022/08/11 04:34:24;;;;;;;;;13.80;13.80;;;;;26.06;32.02;101278.78;2095387;28;47650;-64
2022/08/11 04:35:33;;;;;;;;;13.40;13.20;;;;;26.07;31.92;101273.22;2095265;28;47441;-64
2022/08/11 04:38:47;;;;;;;;;12.20;12.20;;;;;26.06;32.41;101282.38;2095534;28;47281;-63
2022/08/11 04:40:06;;;;;;;;;11.80;11.80;;;;;26.04;32.48;101275.28;2087540;28;47598;-64
2022/08/11 04:41:32;;;;;;;;;13.20;13.00;;;;;26.03;32.63;101276.28;2094696;28;47855;-62
2022/08/11 04:43:21;;;;;;;;;15.80;14.00;;;;;26.01;32.07;101278.25;2095491;28;47470;-63
2022/08/11 04:44:48;;;;;;;;;13.60;13.60;;;;;25.99;32.63;101275.66;2094549;28;47963;-65
2022/08/11 04:46:25;;;;;;;;;15.00;15.00;;;;;25.96;32.71;101270.47;2087093;28;47322;-64
2022/08/11 05:01:42;;;;;;;;;14.40;12.80;;;;;25.89;32.96;101268.34;2096204;28;47499;-65
2022/08/11 05:03:41;;;;;;;;;13.60;12.80;;;;;25.90;32.37;101270.06;2096820;28;46803;-64
2022/08/11 05:05:29;;;;;;;;;15.40;15.20;;;;;25.91;32.69;101269.06;2086971;28;47451;-65
2022/08/11 05:06:46;;;;;;;;;14.60;14.20;;;;;25.90;32.87;101275.50;2086830;28;47946;-65
2022/08/11 05:07:51;;;;;;;;;12.60;12.60;;;;;25.90;32.88;101270.06;2054232;28;47538;-64
2022/08/11 05:09:14;;;;;;;;;14.20;14.20;;;;;25.89;32.65;101276.50;2054236;28;47529;-64
2022/08/11 05:10:17;;;;;;;;;15.60;14.00;;;;;25.89;32.81;101276.50;2054270;28;47261;-63
2022/08/11 05:11:48;;;;;;;;;14.80;13.60;;;;;25.87;32.49;101271.19;2054382;28;48116;-64
2022/08/11 05:27:09;;;;;;;;;17.40;17.40;;;;;25.88;33.00;101280.19;2054197;28;47402;-64
2022/08/11 05:34:52;;;;;;;;;16.20;14.80;;;;;25.88;32.84;101293.78;2047469;28;48074;-63
2022/08/11 05:36:24;;;;;;;;;14.80;14.00;;;;;25.88;32.70;101291.06;2052985;28;47442;-64
2022/08/11 05:37:37;;;;;;;;;14.20;12.80;;;;;25.89;33.33;101290.94;2023545;29;47398;-64
2022/08/11 05:56:25;;;;;;;;;16.00;15.00;;;;;25.99;32.78;101305.59;2079611;28;47806;-64
2022/08/11 05:57:35;;;;;;;;;14.25;13.25;;;;;25.99;32.55;101302.88;2079670;28;47311;-65
2022/08/11 05:58:39;;;;;;;;;14.40;14.40;;;;;26.02;32.80;101299.91;2079749;28;47564;-64
2022/08/11 05:59:40;;;;;;;;;10.40;10.40;;;;;26.02;32.74;101304.47;2079876;28;47473;-64
2022/08/11 06:00:44;;;;;;;;;12.60;12.60;;;;;26.02;32.84;101299.91;2079798;28;47969;-65
2022/08/11 06:01:46;;;;;;;;;11.80;11.80;;;;;26.04;32.59;101311.56;2079627;28;47741;-64
2022/08/11 06:02:59;;;;;;;;;15.80;15.40;;;;;26.02;32.86;101308.06;2079767;28;47560;-65
2022/08/11 06:04:15;;;;;;;;;14.60;14.60;;;;;26.03;32.49;101306.19;2079684;28;47474;-64
2022/08/11 06:05:16;;;;;;;;;15.00;15.00;;;;;26.02;32.01;101304.47;2078377;28;48100;-63
2022/08/11 06:06:17;;;;;;;;;15.40;15.40;;;;;26.02;32.48;101305.34;2079558;28;47823;-65
2022/08/11 06:07:25;;;;;;;;;15.75;15.75;;;;;26.02;32.33;101305.34;2071318;28;47696;-64
2022/08/11 06:08:32;;;;;;;;;14.00;14.00;;;;;26.02;32.16;101294.47;2072136;28;47940;-64
2022/08/11 06:09:45;;;;;;;;;14.40;13.40;;;;;26.02;32.45;101302.63;2079625;28;47406;-63
2022/08/11 06:10:46;;;;;;;;;13.00;12.00;;;;;26.04;31.99;101306.13;2062783;28;48057;-63
2022/08/11 06:11:47;;;;;;;;;12.00;12.00;;;;;26.06;31.78;101311.44;2065983;28;47842;-63
2022/08/11 06:12:52;;;;;;;;;9.75;9.75;;;;;26.07;32.28;101307.72;2079709;28;48037;-63
2022/08/11 06:13:53;;;;;;;;;13.40;12.00;;;;;26.07;32.08;101305.88;2079712;28;47363;-64
2022/08/11 06:14:55;;;;;;;;;13.40;13.40;;;;;26.09;32.05;101306.63;2088535;28;47740;-65
2022/08/11 06:15:57;;;;;;;;;12.80;12.20;;;;;26.09;31.83;101303.91;2105627;27;47635;-63
2022/08/11 06:17:01;;;;;;;;;11.60;11.60;;;;;26.11;32.06;101307.34;2113825;27;47675;-64
2022/08/11 06:18:02;;;;;;;;;12.80;12.80;;;;;26.13;31.63;101307.22;2112733;27;47337;-64
2022/08/11 06:19:04;;;;;;;;;15.80;13.80;;;;;26.14;32.19;101310.81;2107117;27;47145;-64
2022/08/11 06:20:10;;;;;;;;;12.20;12.20;;;;;26.13;32.12;101307.22;2105422;27;47621;-64
2022/08/11 06:21:12;;;;;;;;;11.60;11.60;;;;;26.15;32.10;101312.56;2105681;27;47920;-64
2022/08/11 06:22:19;;;;;;;;;11.00;11.00;;;;;26.16;32.30;101314.28;2087277;28;46304;-64
2022/08/11 06:23:22;;;;;;;;;12.40;11.80;;;;;26.16;31.41;101308.84;2089156;28;47792;-64
2022/08/11 06:24:23;;;;;;;;;12.40;12.40;;;;;26.14;32.07;101303.53;2103923;28;47597;-64
2022/08/11 06:25:34;;;;;;;;;12.00;12.00;;;;;26.14;31.82;101308.97;2105451;28;47700;-65
2022/08/11 06:26:36;;;;;;;;;11.80;10.20;;;;;26.15;31.15;101310.69;2096536;28;47868;-63
2022/08/11 06:27:40;;;;;;;;;13.20;12.60;;;;;26.17;31.54;101307.84;2102950;28;48098;-64
2022/08/11 06:28:44;;;;;;;;;10.80;10.80;;;;;26.15;31.43;101307.97;2104752;28;47659;-63
2022/08/11 06:29:49;;;;;;;;;10.80;10.80;;;;;26.18;31.10;101309.63;2104806;27;48081;-64
2022/08/11 06:30:49;;;;;;;;;11.60;10.40;;;;;26.18;31.54;101312.34;2104706;27;47712;-65
2022/08/11 06:31:53;;;;;;;;;11.00;11.00;;;;;26.20;30.95;101313.09;2104962;27;47420;-63
2022/08/11 06:32:56;;;;;;;;;13.00;13.00;;;;;26.19;31.01;101309.50;2105037;27;48202;-65
2022/08/11 06:34:24;;;;;;;;;13.00;12.40;;;;;26.20;30.82;101316.66;2104526;28;47510;-64
2022/08/11 06:35:50;;;;;;;;;12.20;11.40;;;;;26.20;31.58;101308.50;2105024;28;47684;-64
2022/08/11 06:37:05;;;;;;;;;9.60;9.60;;;;;26.20;31.25;101313.94;2104749;28;47171;-64
2022/08/11 06:38:15;;;;;;;;;11.40;10.00;;;;;26.22;31.45;101320.13;2103538;28;47829;-63
2022/08/11 06:39:44;;;;;;;;;9.40;9.40;;;;;26.24;31.61;101320.00;2104222;28;47579;-63
2022/08/11 06:43:01;;;;;;;;;10.40;10.40;;;;;26.26;30.78;101318.91;2078559;28;45341;-64
2022/08/11 06:44:31;;;;;;;;;11.40;11.40;;;;;26.26;31.06;101313.44;2078916;28;47740;-64
2022/08/11 06:45:39;;;;;;;;;11.80;10.80;;;;;26.28;31.35;101319.63;2079121;28;47567;-63
2022/08/11 06:46:47;;;;;;;;;12.60;11.80;;;;;26.29;30.76;101315.06;2078513;28;47555;-65
2022/08/11 06:47:48;;;;;;;;;12.00;12.00;;;;;26.31;31.27;101316.69;2070864;28;47675;-65
2022/08/11 06:48:49;;;;;;;;;10.50;10.50;;;;;26.33;30.96;101319.28;2076007;28;47063;-63
2022/08/11 06:51:13;;;;;;;;;10.00;10.00;;;;;26.33;30.62;101314.72;2078719;28;47703;-63
2022/08/11 06:52:15;;;;;;;;;9.60;9.60;;;;;26.35;30.58;101318.19;2078493;28;47214;-64
2022/08/11 06:53:19;;;;;;;;;10.60;10.00;;;;;26.34;30.48;101316.44;2078014;28;48332;-63
2022/08/11 06:54:20;;;;;;;;;8.00;8.00;;;;;26.37;30.45;101320.81;2078880;28;47721;-64
2022/08/11 07:00:57;;;;;;;;;11.20;11.20;;;;;26.42;30.26;101321.31;2078714;28;47648;-64
2022/08/11 07:02:20;;;;;;;;;12.00;12.00;;;;;26.44;30.15;101316.63;2078380;28;47574;-63
2022/08/11 07:03:22;;;;;;;;;12.60;12.60;;;;;26.44;30.75;101319.34;2078505;28;48436;-64
2022/08/11 07:04:47;;;;;;;;;10.80;10.80;;;;;26.47;30.03;101320.97;2070548;28;47669;-64
2022/08/11 07:05:53;;;;;;;;;10.80;10.00;;;;;26.47;30.58;101319.09;2053913;28;47504;-64
2022/08/11 07:16:25;;;;;;;;;11.00;11.00;;;;;26.58;30.01;101318.25;2054451;28;47904;-64
2022/08/11 07:17:30;;;;;;;;;10.80;9.60;;;;;26.57;30.20;101320.13;2053846;28;47745;-64
2022/08/11 07:29:51;;;;;;;;;10.00;10.00;;;;;26.73;30.58;101324.34;2068259;28;47578;-63
2022/08/11 07:30:57;;;;;;;;;11.00;11.00;;;;;26.74;30.19;101324.22;2070408;28;47216;-64
2022/08/11 07:32:05;;;;;;;;;11.80;11.80;;;;;26.75;30.39;101316.91;2070622;28;47963;-63
2022/08/11 07:33:09;;;;;;;;;11.40;10.00;;;;;26.77;30.70;101321.25;2070176;28;47517;-63
2022/08/11 07:34:23;;;;;;;;;9.20;9.20;;;;;26.78;30.32;101314.81;2070571;28;47458;-64
2022/08/11 07:35:37;;;;;;;;;9.20;8.60;;;;;26.81;30.70;101319.16;2070089;28;48056;-64
2022/08/11 07:36:48;;;;;;;;;13.40;11.20;;;;;26.82;30.09;101318.16;2070215;28;48104;-63